createdAt,value
2022-08-07T00:00:21.501Z,1021.45
2022-08-07T00:02:35.502Z,1021.43
2022-08-07T00:02:39.614Z,1021.46
2022-08-07T00:03:21.468Z,1021.45
2022-08-07T00:04:24.370Z,1021.45
2022-08-07T00:05:23.652Z,1021.49
2022-08-07T00:06:21.468Z,1021.49
2022-08-07T00:07:21.472Z,1021.44
2022-08-07T00:08:21.468Z,1021.44
2022-08-07T00:09:22.326Z,1021.41
2022-08-07T00:10:27.214Z,1021.37
2022-08-07T00:11:21.453Z,1021.39
2022-08-07T00:12:21.455Z,1021.38
2022-08-07T00:13:23.850Z,1021.38
2022-08-07T00:14:21.444Z,1021.39
2022-08-07T00:15:21.453Z,1021.37
2022-08-07T00:16:21.640Z,1021.34
2022-08-07T00:17:21.450Z,1021.36
2022-08-07T00:18:24.540Z,1021.33
2022-08-07T00:19:26.115Z,1021.32
2022-08-07T00:20:29.781Z,1021.29
2022-08-07T00:21:57.225Z,1021.26
2022-08-07T00:22:24.705Z,1021.30
2022-08-07T00:23:21.692Z,1021.25
2022-08-07T00:24:21.426Z,1021.28
2022-08-07T00:25:21.428Z,1021.25
2022-08-07T00:26:48.715Z,1021.22
2022-08-07T00:27:22.607Z,1021.23
2022-08-07T00:28:22.142Z,1021.22
2022-08-07T00:29:23.269Z,1021.23
2022-08-07T00:30:26.757Z,1021.22
2022-08-07T00:31:21.415Z,1021.21
2022-08-07T00:32:28.448Z,1021.26
2022-08-07T00:33:21.409Z,1021.21
2022-08-07T00:34:21.627Z,1021.18
2022-08-07T00:35:21.402Z,1021.17
2022-08-07T00:36:21.401Z,1021.14
2022-08-07T00:37:21.404Z,1021.17
2022-08-07T00:38:31.404Z,1021.14
2022-08-07T00:39:21.422Z,1021.11
2022-08-07T00:40:39.374Z,1021.13
2022-08-07T00:41:21.382Z,1021.15
2022-08-07T00:42:29.021Z,1021.15
2022-08-07T00:44:00.887Z,1021.17
2022-08-07T00:44:21.389Z,1021.15
2022-08-07T00:45:21.377Z,1021.15
2022-08-07T00:46:21.383Z,1021.16
2022-08-07T00:48:09.518Z,1021.13
2022-08-07T00:48:24.893Z,1021.15
2022-08-07T00:49:24.836Z,1021.15
2022-08-07T00:50:50.817Z,1021.16
2022-08-07T00:51:21.365Z,1021.14
2022-08-07T00:52:21.362Z,1021.13
2022-08-07T00:53:21.355Z,1021.14
2022-08-07T00:54:22.395Z,1021.11
2022-08-07T00:55:46.601Z,1021.07
2022-08-07T00:56:21.359Z,1021.06
2022-08-07T00:57:21.354Z,1021.09
2022-08-07T00:58:21.347Z,1021.06
2022-08-07T00:59:35.068Z,1021.07
2022-08-07T01:00:21.353Z,1021.05
2022-08-07T01:01:21.442Z,1021.01
2022-08-07T01:02:28.341Z,1021.03
2022-08-07T01:03:21.332Z,1020.99
2022-08-07T01:04:24.590Z,1021.00
2022-08-07T01:05:24.641Z,1021.02
2022-08-07T01:06:21.853Z,1021.02
2022-08-07T01:07:21.339Z,1020.98
2022-08-07T01:08:21.320Z,1020.96
2022-08-07T01:10:04.708Z,1020.97
2022-08-07T01:10:21.318Z,1020.93
2022-08-07T01:12:09.677Z,1020.96
2022-08-07T01:12:29.800Z,1020.90
2022-08-07T01:13:21.323Z,1020.93
2022-08-07T01:14:28.725Z,1020.96
2022-08-07T01:15:21.353Z,1020.91
2022-08-07T01:16:30.582Z,1020.92
2022-08-07T01:17:21.301Z,1020.93
2022-08-07T01:18:21.302Z,1020.95
2022-08-07T01:19:21.295Z,1020.94
2022-08-07T01:20:21.289Z,1020.91
2022-08-07T01:21:24.385Z,1020.96
2022-08-07T01:22:22.947Z,1020.97
2022-08-07T01:23:21.285Z,1020.99
2022-08-07T01:24:21.765Z,1020.94
2022-08-07T01:25:54.668Z,1020.95
2022-08-07T01:26:21.284Z,1020.96
2022-08-07T01:27:21.284Z,1020.92
2022-08-07T01:28:21.294Z,1020.92
2022-08-07T01:29:22.115Z,1020.96
2022-08-07T01:30:21.265Z,1020.96
2022-08-07T01:31:21.269Z,1020.91
2022-08-07T01:32:22.476Z,1020.92
2022-08-07T01:33:21.261Z,1020.95
2022-08-07T01:34:30.613Z,1020.91
2022-08-07T01:35:21.255Z,1020.95
2022-08-07T01:36:21.252Z,1020.88
2022-08-07T01:37:21.249Z,1020.87
2022-08-07T01:38:24.996Z,1020.87
2022-08-07T01:39:21.304Z,1020.85
2022-08-07T01:40:21.253Z,1020.87
2022-08-07T01:41:25.939Z,1020.86
2022-08-07T01:42:38.654Z,1020.88
2022-08-07T01:43:21.231Z,1020.88
2022-08-07T01:44:21.236Z,1020.89
2022-08-07T01:45:22.763Z,1020.86
2022-08-07T01:46:21.459Z,1020.89
2022-08-07T01:48:29.855Z,1020.84
2022-08-07T01:48:30.530Z,1020.84
2022-08-07T01:49:22.135Z,1020.83
2022-08-07T01:50:29.090Z,1020.84
2022-08-07T01:52:02.129Z,1020.84
2022-08-07T01:52:21.211Z,1020.81
2022-08-07T01:53:21.788Z,1020.83
2022-08-07T01:54:33.209Z,1020.83
2022-08-07T01:55:22.226Z,1020.83
2022-08-07T01:56:21.203Z,1020.87
2022-08-07T01:57:24.940Z,1020.82
2022-08-07T01:58:28.875Z,1020.82
2022-08-07T01:59:21.201Z,1020.83
2022-08-07T02:00:28.869Z,1020.88
2022-08-07T02:01:59.179Z,1020.86
2022-08-07T02:02:32.803Z,1020.88
2022-08-07T02:03:26.272Z,1020.91
2022-08-07T02:04:21.270Z,1020.91
2022-08-07T02:05:43.426Z,1020.91
2022-08-07T02:06:31.737Z,1020.93
2022-08-07T02:07:21.277Z,1020.89
2022-08-07T02:08:21.181Z,1020.92
2022-08-07T02:09:51.854Z,1020.89
2022-08-07T02:10:21.165Z,1020.88
2022-08-07T02:11:30.750Z,1020.89
2022-08-07T02:12:29.044Z,1020.90
2022-08-07T02:13:21.161Z,1020.91
2022-08-07T02:14:36.027Z,1020.93
2022-08-07T02:15:21.155Z,1020.94
2022-08-07T02:16:28.522Z,1020.92
2022-08-07T02:17:27.398Z,1020.92
2022-08-07T02:18:21.150Z,1020.92
2022-08-07T02:20:04.043Z,1020.94
2022-08-07T02:20:23.668Z,1020.94
2022-08-07T02:21:21.144Z,1020.89
2022-08-07T02:22:21.135Z,1020.93
2022-08-07T02:23:24.047Z,1020.92
2022-08-07T02:24:21.138Z,1020.92
2022-08-07T02:25:21.127Z,1020.93
2022-08-07T02:26:32.588Z,1020.90
2022-08-07T02:27:21.166Z,1020.92
2022-08-07T02:28:24.772Z,1020.90
2022-08-07T02:29:21.964Z,1020.89
2022-08-07T02:30:21.117Z,1020.88
2022-08-07T02:31:28.745Z,1020.91
2022-08-07T02:32:23.388Z,1020.89
2022-08-07T02:33:21.115Z,1020.87
2022-08-07T02:34:21.111Z,1020.90
2022-08-07T02:36:29.618Z,1020.88
2022-08-07T02:36:30.302Z,1020.87
2022-08-07T02:37:21.109Z,1020.91
2022-08-07T02:38:22.730Z,1020.92
2022-08-07T02:39:43.755Z,1020.91
2022-08-07T02:40:30.575Z,1020.89
2022-08-07T02:41:21.749Z,1020.91
2022-08-07T02:42:21.100Z,1020.91
2022-08-07T02:43:21.093Z,1020.87
2022-08-07T02:44:21.071Z,1020.83
2022-08-07T02:46:00.351Z,1020.86
2022-08-07T02:46:21.072Z,1020.79
2022-08-07T02:47:23.648Z,1020.78
2022-08-07T02:48:21.067Z,1020.80
2022-08-07T02:49:29.257Z,1020.79
2022-08-07T02:50:21.065Z,1020.81
2022-08-07T02:51:41.921Z,1020.77
2022-08-07T02:52:21.417Z,1020.78
2022-08-07T02:53:21.056Z,1020.77
2022-08-07T02:54:21.069Z,1020.74
2022-08-07T02:55:27.726Z,1020.73
2022-08-07T02:56:21.862Z,1020.71
2022-08-07T02:57:21.143Z,1020.74
2022-08-07T02:58:21.559Z,1020.69
2022-08-07T02:59:24.089Z,1020.71
2022-08-07T03:00:21.026Z,1020.71
2022-08-07T03:01:35.791Z,1020.69
2022-08-07T03:02:21.096Z,1020.72
2022-08-07T03:03:22.621Z,1020.71
2022-08-07T03:04:21.027Z,1020.73
2022-08-07T03:05:23.119Z,1020.70
2022-08-07T03:06:26.149Z,1020.73
2022-08-07T03:07:25.708Z,1020.73
2022-08-07T03:08:26.737Z,1020.74
2022-08-07T03:09:43.585Z,1020.72
2022-08-07T03:10:23.487Z,1020.70
2022-08-07T03:11:21.003Z,1020.69
2022-08-07T03:12:22.059Z,1020.69
2022-08-07T03:13:21.002Z,1020.71
2022-08-07T03:14:22.543Z,1020.70
2022-08-07T03:15:30.127Z,1020.70
2022-08-07T03:16:22.834Z,1020.71
2022-08-07T03:17:22.206Z,1020.72
2022-08-07T03:18:20.984Z,1020.74
2022-08-07T03:19:20.978Z,1020.74
2022-08-07T03:20:20.968Z,1020.77
2022-08-07T03:21:20.972Z,1020.77
2022-08-07T03:22:20.967Z,1020.78
2022-08-07T03:23:20.962Z,1020.82
2022-08-07T03:24:27.206Z,1020.83
2022-08-07T03:25:21.366Z,1020.84
2022-08-07T03:26:23.691Z,1020.86
2022-08-07T03:27:30.531Z,1020.87
2022-08-07T03:28:38.067Z,1020.85
2022-08-07T03:29:20.950Z,1020.83
2022-08-07T03:30:20.948Z,1020.83
2022-08-07T03:31:26.125Z,1020.77
2022-08-07T03:32:20.939Z,1020.80
2022-08-07T03:33:20.934Z,1020.80
2022-08-07T03:34:21.947Z,1020.77
2022-08-07T03:35:26.198Z,1020.79
2022-08-07T03:36:20.921Z,1020.76
2022-08-07T03:37:20.929Z,1020.71
2022-08-07T03:38:29.763Z,1020.73
2022-08-07T03:39:58.852Z,1020.77
2022-08-07T03:40:22.278Z,1020.77
2022-08-07T03:41:20.910Z,1020.75
2022-08-07T03:42:20.911Z,1020.72
2022-08-07T03:43:20.897Z,1020.77
2022-08-07T03:44:21.776Z,1020.76
2022-08-07T03:45:31.092Z,1020.73
2022-08-07T03:46:20.900Z,1020.72
2022-08-07T03:47:20.895Z,1020.71
2022-08-07T03:48:20.881Z,1020.70
2022-08-07T03:49:20.877Z,1020.73
2022-08-07T03:50:23.105Z,1020.72
2022-08-07T03:51:20.930Z,1020.74
2022-08-07T03:52:22.887Z,1020.76
2022-08-07T03:53:20.872Z,1020.77
2022-08-07T03:54:35.232Z,1020.73
2022-08-07T03:55:20.879Z,1020.74
2022-08-07T03:56:33.166Z,1020.73
2022-08-07T03:58:34.960Z,1020.73
2022-08-07T03:59:05.735Z,1020.74
2022-08-07T03:59:21.084Z,1020.74
2022-08-07T04:00:20.992Z,1020.74
2022-08-07T04:01:20.845Z,1020.69
2022-08-07T04:02:20.854Z,1020.69
2022-08-07T04:03:20.857Z,1020.67
2022-08-07T04:04:20.836Z,1020.70
2022-08-07T04:05:24.011Z,1020.66
2022-08-07T04:06:37.026Z,1020.71
2022-08-07T04:07:22.903Z,1020.69
2022-08-07T04:08:20.934Z,1020.71
2022-08-07T04:09:23.065Z,1020.68
2022-08-07T04:10:20.813Z,1020.70
2022-08-07T04:12:20.776Z,1020.67
2022-08-07T04:12:27.200Z,1020.72
2022-08-07T04:13:20.811Z,1020.67
2022-08-07T04:14:37.739Z,1020.68
2022-08-07T04:15:20.800Z,1020.67
2022-08-07T04:16:31.349Z,1020.69
2022-08-07T04:17:21.863Z,1020.69
2022-08-07T04:18:57.970Z,1020.71
2022-08-07T04:19:20.780Z,1020.68
2022-08-07T04:20:20.788Z,1020.71
2022-08-07T04:21:20.780Z,1020.70
2022-08-07T04:22:20.773Z,1020.68
2022-08-07T04:23:20.767Z,1020.73
2022-08-07T04:24:30.747Z,1020.74
2022-08-07T04:25:20.779Z,1020.75
2022-08-07T04:26:21.940Z,1020.78
2022-08-07T04:27:25.704Z,1020.79
2022-08-07T04:28:21.722Z,1020.82
2022-08-07T04:29:20.750Z,1020.80
2022-08-07T04:30:21.197Z,1020.80
2022-08-07T04:31:38.713Z,1020.81
2022-08-07T04:32:27.253Z,1020.82
2022-08-07T04:33:20.750Z,1020.82
2022-08-07T04:34:24.266Z,1020.82
2022-08-07T04:35:21.418Z,1020.81
2022-08-07T04:36:22.901Z,1020.83
2022-08-07T04:37:20.787Z,1020.83
2022-08-07T04:38:20.729Z,1020.82
2022-08-07T04:39:25.861Z,1020.82
2022-08-07T04:40:20.726Z,1020.81
2022-08-07T04:41:20.723Z,1020.82
2022-08-07T04:42:20.710Z,1020.80
2022-08-07T04:43:20.717Z,1020.80
2022-08-07T04:44:20.707Z,1020.77
2022-08-07T04:45:44.487Z,1020.80
2022-08-07T04:46:29.632Z,1020.79
2022-08-07T04:47:56.737Z,1020.80
2022-08-07T04:48:20.708Z,1020.79
2022-08-07T04:49:24.814Z,1020.82
2022-08-07T04:50:22.298Z,1020.82
2022-08-07T04:51:20.678Z,1020.80
2022-08-07T04:52:20.679Z,1020.84
2022-08-07T04:53:39.966Z,1020.84
2022-08-07T04:54:22.595Z,1020.84
2022-08-07T04:58:10.641Z,1020.89
2022-08-07T04:58:11.334Z,1020.86
2022-08-07T04:58:16.495Z,1020.94
2022-08-07T04:58:47.296Z,1020.92
2022-08-07T05:00:08.029Z,1020.92
2022-08-07T05:00:30.113Z,1020.91
2022-08-07T05:01:20.725Z,1020.95
2022-08-07T05:02:20.820Z,1020.90
2022-08-07T05:04:00.168Z,1020.94
2022-08-07T05:04:20.627Z,1021.02
2022-08-07T05:05:52.186Z,1020.99
2022-08-07T05:06:20.631Z,1020.99
2022-08-07T05:07:21.139Z,1021.01
2022-08-07T05:08:59.167Z,1021.02
2022-08-07T05:09:43.060Z,1021.01
2022-08-07T05:10:20.619Z,1021.00
2022-08-07T05:11:26.155Z,1020.97
2022-08-07T05:12:27.125Z,1021.02
2022-08-07T05:14:53.043Z,1021.02
2022-08-07T05:14:55.368Z,1021.03
2022-08-07T05:15:23.074Z,1021.01
2022-08-07T05:16:20.598Z,1021.03
2022-08-07T05:17:52.869Z,1021.03
2022-08-07T05:18:20.632Z,1021.04
2022-08-07T05:19:20.592Z,1021.03
2022-08-07T05:20:20.587Z,1021.00
2022-08-07T05:22:00.519Z,1021.02
2022-08-07T05:22:26.753Z,1021.02
2022-08-07T05:23:20.589Z,1020.98
2022-08-07T05:24:20.582Z,1021.01
2022-08-07T05:25:25.957Z,1020.99
2022-08-07T05:26:23.991Z,1020.97
2022-08-07T05:28:03.182Z,1021.04
2022-08-07T05:28:23.421Z,1021.05
2022-08-07T05:29:20.562Z,1021.05
2022-08-07T05:30:30.018Z,1021.09
2022-08-07T05:31:20.563Z,1021.10
2022-08-07T05:32:20.566Z,1021.12
2022-08-07T05:33:20.854Z,1021.08
2022-08-07T05:34:20.559Z,1021.10
2022-08-07T05:35:23.804Z,1021.10
2022-08-07T05:36:22.626Z,1021.10
2022-08-07T05:37:25.337Z,1021.13
2022-08-07T05:38:58.365Z,1021.12
2022-08-07T05:40:16.646Z,1021.06
2022-08-07T05:40:20.748Z,1021.10
2022-08-07T05:41:21.889Z,1021.11
2022-08-07T05:42:34.333Z,1021.09
2022-08-07T05:43:49.890Z,1021.09
2022-08-07T05:44:29.246Z,1021.09
2022-08-07T05:45:46.988Z,1021.10
2022-08-07T05:46:20.535Z,1021.07
2022-08-07T05:47:20.915Z,1021.07
2022-08-07T05:48:20.538Z,1021.06
2022-08-07T05:49:20.523Z,1021.10
2022-08-07T05:50:20.531Z,1021.09
2022-08-07T05:51:20.519Z,1021.10
2022-08-07T05:52:20.704Z,1021.10
2022-08-07T05:54:13.597Z,1021.10
2022-08-07T05:54:31.355Z,1021.09
2022-08-07T05:55:20.521Z,1021.15
2022-08-07T05:56:20.514Z,1021.13
2022-08-07T05:57:20.567Z,1021.13
2022-08-07T05:58:30.251Z,1021.12
2022-08-07T05:59:20.832Z,1021.11
2022-08-07T06:00:20.514Z,1021.15
2022-08-07T06:01:20.554Z,1021.13
2022-08-07T06:02:28.537Z,1021.14
2022-08-07T06:03:20.531Z,1021.18
2022-08-07T06:04:20.521Z,1021.15
2022-08-07T06:05:28.086Z,1021.15
2022-08-07T06:06:20.521Z,1021.15
2022-08-07T06:07:23.156Z,1021.18
2022-08-07T06:08:29.897Z,1021.19
2022-08-07T06:09:20.514Z,1021.21
2022-08-07T06:10:20.522Z,1021.24
2022-08-07T06:11:20.536Z,1021.23
2022-08-07T06:12:20.953Z,1021.23
2022-08-07T06:13:20.864Z,1021.28
2022-08-07T06:14:21.033Z,1021.26
2022-08-07T06:15:20.531Z,1021.20
2022-08-07T06:16:20.528Z,1021.25
2022-08-07T06:17:22.284Z,1021.23
2022-08-07T06:18:20.535Z,1021.24
2022-08-07T06:19:47.442Z,1021.22
2022-08-07T06:20:31.848Z,1021.25
2022-08-07T06:22:14.978Z,1021.29
2022-08-07T06:22:23.938Z,1021.25
2022-08-07T06:23:24.825Z,1021.26
2022-08-07T06:24:38.695Z,1021.29
2022-08-07T06:25:20.526Z,1021.30
2022-08-07T06:26:20.525Z,1021.34
2022-08-07T06:27:22.796Z,1021.30
2022-08-07T06:28:27.651Z,1021.26
2022-08-07T06:29:20.528Z,1021.34
2022-08-07T06:30:32.226Z,1021.32
2022-08-07T06:31:20.528Z,1021.32
2022-08-07T06:32:20.533Z,1021.33
2022-08-07T06:33:20.526Z,1021.34
2022-08-07T06:34:21.551Z,1021.32
2022-08-07T06:35:20.528Z,1021.33
2022-08-07T06:36:34.786Z,1021.36
2022-08-07T06:37:20.754Z,1021.35
2022-08-07T06:38:20.909Z,1021.35
2022-08-07T06:40:17.915Z,1021.33
2022-08-07T06:40:21.594Z,1021.35
2022-08-07T06:41:29.384Z,1021.30
2022-08-07T06:42:26.586Z,1021.33
2022-08-07T06:43:21.334Z,1021.32
2022-08-07T06:44:20.533Z,1021.28
2022-08-07T06:45:21.205Z,1021.25
2022-08-07T06:46:34.997Z,1021.23
2022-08-07T06:47:26.979Z,1021.21
2022-08-07T06:48:25.313Z,1021.24
2022-08-07T06:49:20.528Z,1021.23
2022-08-07T06:50:20.527Z,1021.19
2022-08-07T06:51:24.507Z,1021.20
2022-08-07T06:52:32.079Z,1021.19
2022-08-07T06:55:29.875Z,1021.20
2022-08-07T06:55:32.195Z,1021.21
2022-08-07T06:55:33.713Z,1021.19
2022-08-07T06:56:20.510Z,1021.18
2022-08-07T06:57:20.576Z,1021.19
2022-08-07T06:58:21.454Z,1021.21
2022-08-07T07:00:14.030Z,1021.22
2022-08-07T07:00:20.503Z,1021.17
2022-08-07T07:01:20.630Z,1021.21
2022-08-07T07:02:48.488Z,1021.20
2022-08-07T07:03:39.627Z,1021.22
2022-08-07T07:04:28.106Z,1021.25
2022-08-07T07:06:02.788Z,1021.23
2022-08-07T07:06:24.000Z,1021.25
2022-08-07T07:07:59.840Z,1021.20
2022-08-07T07:08:26.465Z,1021.19
2022-08-07T07:09:20.517Z,1021.19
2022-08-07T07:10:21.333Z,1021.19
2022-08-07T07:12:07.700Z,1021.17
2022-08-07T07:12:30.700Z,1021.17
2022-08-07T07:13:56.245Z,1021.15
2022-08-07T07:14:21.708Z,1021.16
2022-08-07T07:15:23.980Z,1021.16
2022-08-07T07:16:20.487Z,1021.13
2022-08-07T07:17:20.478Z,1021.14
2022-08-07T07:18:37.669Z,1021.14
2022-08-07T07:19:58.049Z,1021.14
2022-08-07T07:20:20.485Z,1021.12
2022-08-07T07:21:20.483Z,1021.15
2022-08-07T07:22:35.871Z,1021.13
2022-08-07T07:24:10.106Z,1021.15
2022-08-07T07:24:20.485Z,1021.14
2022-08-07T07:26:32.717Z,1021.15
2022-08-07T07:26:33.920Z,1021.11
2022-08-07T07:27:20.522Z,1021.16
2022-08-07T07:28:42.670Z,1021.09
2022-08-07T07:29:55.868Z,1021.08
2022-08-07T07:30:32.569Z,1021.13
2022-08-07T07:31:21.606Z,1021.15
2022-08-07T07:32:20.477Z,1021.08
2022-08-07T07:33:20.467Z,1021.12
2022-08-07T07:34:20.470Z,1021.08
2022-08-07T07:35:20.464Z,1021.10
2022-08-07T07:36:20.474Z,1021.09
2022-08-07T07:37:44.003Z,1021.11
2022-08-07T07:38:20.461Z,1021.06
2022-08-07T07:39:20.567Z,1021.11
2022-08-07T07:40:20.470Z,1021.07
2022-08-07T07:41:20.476Z,1021.04
2022-08-07T07:42:20.793Z,1021.09
2022-08-07T07:43:27.730Z,1021.06
2022-08-07T07:44:25.745Z,1021.03
2022-08-07T07:45:24.508Z,1021.03
2022-08-07T07:46:37.148Z,1021.03
2022-08-07T07:47:23.950Z,1021.00
2022-08-07T07:48:34.732Z,1021.05
2022-08-07T07:50:33.398Z,1021.01
2022-08-07T07:50:36.255Z,1021.00
2022-08-07T07:51:20.466Z,1020.99
2022-08-07T07:52:20.464Z,1020.98
2022-08-07T07:53:25.606Z,1021.01
2022-08-07T07:54:20.476Z,1020.99
2022-08-07T07:55:20.459Z,1020.99
2022-08-07T07:56:30.669Z,1020.98
2022-08-07T07:57:20.502Z,1020.96
2022-08-07T07:58:20.469Z,1020.91
2022-08-07T07:59:51.476Z,1020.95
2022-08-07T08:00:28.865Z,1020.93
2022-08-07T08:02:03.892Z,1020.93
2022-08-07T08:02:34.124Z,1020.91
2022-08-07T08:04:06.281Z,1020.93
2022-08-07T08:04:25.374Z,1020.92
2022-08-07T08:05:20.461Z,1020.93
2022-08-07T08:06:20.475Z,1020.92
2022-08-07T08:07:20.470Z,1020.89
2022-08-07T08:08:32.289Z,1020.94
2022-08-07T08:09:20.495Z,1020.91
2022-08-07T08:10:37.999Z,1020.91
2022-08-07T08:11:59.921Z,1020.88
2022-08-07T08:12:50.337Z,1020.87
2022-08-07T08:13:20.478Z,1020.84
2022-08-07T08:14:24.554Z,1020.84
2022-08-07T08:15:23.178Z,1020.86
2022-08-07T08:16:20.476Z,1020.88
2022-08-07T08:17:57.587Z,1020.90
2022-08-07T08:18:20.725Z,1020.88
2022-08-07T08:20:17.734Z,1020.88
2022-08-07T08:20:23.097Z,1020.88
2022-08-07T08:21:20.484Z,1020.89
2022-08-07T08:22:20.494Z,1020.87
2022-08-07T08:23:20.681Z,1020.85
2022-08-07T08:24:44.942Z,1020.86
2022-08-07T08:25:27.078Z,1020.85
2022-08-07T08:26:20.477Z,1020.84
2022-08-07T08:27:20.672Z,1020.87
2022-08-07T08:28:24.115Z,1020.84
2022-08-07T08:29:20.476Z,1020.87
2022-08-07T08:30:20.533Z,1020.88
2022-08-07T08:31:30.169Z,1020.85
2022-08-07T08:32:25.403Z,1020.81
2022-08-07T08:33:20.558Z,1020.84
2022-08-07T08:34:27.133Z,1020.79
2022-08-07T08:35:20.486Z,1020.80
2022-08-07T08:36:25.670Z,1020.79
2022-08-07T08:37:59.271Z,1020.76
2022-08-07T08:38:20.506Z,1020.75
2022-08-07T08:39:20.600Z,1020.79
2022-08-07T08:40:23.563Z,1020.73
2022-08-07T08:41:20.495Z,1020.73
2022-08-07T08:42:20.631Z,1020.75
2022-08-07T08:43:20.518Z,1020.71
2022-08-07T08:44:21.282Z,1020.67
2022-08-07T08:45:20.516Z,1020.69
2022-08-07T08:46:22.005Z,1020.63
2022-08-07T08:47:20.576Z,1020.67
2022-08-07T08:48:20.665Z,1020.63
2022-08-07T08:49:33.525Z,1020.63
2022-08-07T08:50:28.173Z,1020.64
2022-08-07T08:51:29.546Z,1020.63
2022-08-07T08:52:20.493Z,1020.63
2022-08-07T08:53:20.504Z,1020.62
2022-08-07T08:54:20.516Z,1020.60
2022-08-07T08:55:21.289Z,1020.57
2022-08-07T08:56:24.414Z,1020.56
2022-08-07T08:57:20.557Z,1020.60
2022-08-07T08:58:28.304Z,1020.53
2022-08-07T08:59:20.506Z,1020.54
2022-08-07T09:00:20.498Z,1020.53
2022-08-07T09:01:20.586Z,1020.56
2022-08-07T09:02:36.418Z,1020.53
2022-08-07T09:03:20.498Z,1020.54
2022-08-07T09:04:26.079Z,1020.52
2022-08-07T09:05:24.965Z,1020.50
2022-08-07T09:06:20.507Z,1020.46
2022-08-07T09:07:23.128Z,1020.46
2022-08-07T09:08:28.135Z,1020.43
2022-08-07T09:09:23.679Z,1020.44
2022-08-07T09:10:20.550Z,1020.47
2022-08-07T09:11:24.232Z,1020.45
2022-08-07T09:12:31.914Z,1020.40
2022-08-07T09:13:20.497Z,1020.42
2022-08-07T09:14:20.504Z,1020.45
2022-08-07T09:16:22.935Z,1020.47
2022-08-07T09:16:26.612Z,1020.41
2022-08-07T09:17:20.546Z,1020.45
2022-08-07T09:18:22.817Z,1020.48
2022-08-07T09:19:51.017Z,1020.46
2022-08-07T09:20:34.956Z,1020.46
2022-08-07T09:21:57.894Z,1020.43
2022-08-07T09:24:28.321Z,1020.41
2022-08-07T09:24:33.424Z,1020.36
2022-08-07T09:24:53.917Z,1020.42
2022-08-07T09:25:20.508Z,1020.32
2022-08-07T09:26:20.930Z,1020.39
2022-08-07T09:27:20.493Z,1020.35
2022-08-07T09:30:04.271Z,1020.41
2022-08-07T09:30:04.373Z,1020.36
2022-08-07T09:30:25.409Z,1020.42
2022-08-07T09:31:20.510Z,1020.37
2022-08-07T09:32:20.998Z,1020.36
2022-08-07T09:33:41.271Z,1020.41
2022-08-07T09:34:20.887Z,1020.36
2022-08-07T09:36:05.148Z,1020.35
2022-08-07T09:36:20.492Z,1020.34
2022-08-07T09:37:20.538Z,1020.28
2022-08-07T09:38:21.092Z,1020.27
2022-08-07T09:39:54.354Z,1020.27
2022-08-07T09:40:20.522Z,1020.20
2022-08-07T09:41:20.479Z,1020.23
2022-08-07T09:42:23.154Z,1020.24
2022-08-07T09:43:20.488Z,1020.25
2022-08-07T09:44:32.700Z,1020.22
2022-08-07T09:47:26.104Z,1020.25
2022-08-07T09:47:51.488Z,1020.22
2022-08-07T09:47:52.063Z,1020.21
2022-08-07T09:48:20.840Z,1020.24
2022-08-07T09:50:01.876Z,1020.25
2022-08-07T09:50:20.477Z,1020.19
2022-08-07T09:52:15.822Z,1020.19
2022-08-07T09:52:34.838Z,1020.13
2022-08-07T09:53:20.465Z,1020.10
2022-08-07T09:54:20.473Z,1020.09
2022-08-07T09:55:36.840Z,1020.11
2022-08-07T09:56:37.748Z,1020.10
2022-08-07T09:57:20.473Z,1020.14
2022-08-07T09:58:20.458Z,1020.02
2022-08-07T09:59:21.667Z,1020.04
2022-08-07T10:00:20.477Z,1020.04
2022-08-07T10:01:51.439Z,1020.00
2022-08-07T10:02:20.465Z,1020.01
2022-08-07T10:04:06.407Z,1020.02
2022-08-07T10:04:28.195Z,1020.03
2022-08-07T10:05:58.923Z,1020.02
2022-08-07T10:06:24.606Z,1019.99
2022-08-07T10:07:25.953Z,1020.00
2022-08-07T10:08:20.455Z,1020.03
2022-08-07T10:09:34.144Z,1020.09
2022-08-07T10:10:21.442Z,1020.07
2022-08-07T10:12:01.485Z,1020.06
2022-08-07T10:12:21.710Z,1020.03
2022-08-07T10:13:54.697Z,1020.02
2022-08-07T10:14:22.979Z,1019.99
2022-08-07T10:15:20.447Z,1019.97
2022-08-07T10:16:20.440Z,1019.99
2022-08-07T10:17:20.438Z,1019.99
2022-08-07T10:18:20.435Z,1019.98
2022-08-07T10:19:20.442Z,1020.00
2022-08-07T10:20:20.579Z,1019.96
2022-08-07T10:22:14.698Z,1020.02
2022-08-07T10:22:33.398Z,1019.98
2022-08-07T10:24:05.380Z,1019.95
2022-08-07T10:24:21.469Z,1019.93
2022-08-07T10:25:20.789Z,1019.93
2022-08-07T10:26:24.659Z,1019.90
2022-08-07T10:27:20.471Z,1019.96
2022-08-07T10:28:20.426Z,1019.92
2022-08-07T10:29:20.441Z,1019.89
2022-08-07T10:30:20.435Z,1019.93
2022-08-07T10:31:20.431Z,1019.87
2022-08-07T10:32:50.978Z,1019.82
2022-08-07T10:33:20.433Z,1019.82
2022-08-07T10:34:31.979Z,1019.83
2022-08-07T10:35:25.472Z,1019.86
2022-08-07T10:36:29.585Z,1019.84
2022-08-07T10:37:26.398Z,1019.83
2022-08-07T10:38:35.252Z,1019.83
2022-08-07T10:39:20.474Z,1019.82
2022-08-07T10:40:20.941Z,1019.82
2022-08-07T10:41:51.501Z,1019.75
2022-08-07T10:42:21.249Z,1019.79
2022-08-07T10:43:29.801Z,1019.76
2022-08-07T10:44:28.883Z,1019.76
2022-08-07T10:45:57.247Z,1019.74
2022-08-07T10:46:20.421Z,1019.72
2022-08-07T10:47:26.562Z,1019.71
2022-08-07T10:48:20.420Z,1019.76
2022-08-07T10:49:24.733Z,1019.70
2022-08-07T10:50:20.436Z,1019.69
2022-08-07T10:51:39.102Z,1019.66
2022-08-07T10:52:20.470Z,1019.67
2022-08-07T10:53:21.549Z,1019.62
2022-08-07T10:54:20.419Z,1019.61
2022-08-07T10:55:26.748Z,1019.63
2022-08-07T10:56:21.012Z,1019.65
2022-08-07T10:57:22.143Z,1019.65
2022-08-07T10:58:24.960Z,1019.61
2022-08-07T10:59:21.407Z,1019.64
2022-08-07T11:00:39.033Z,1019.59
2022-08-07T11:01:22.268Z,1019.55
2022-08-07T11:02:33.130Z,1019.49
2022-08-07T11:03:20.408Z,1019.45
2022-08-07T11:04:32.312Z,1019.47
2022-08-07T11:05:20.416Z,1019.52
2022-08-07T11:06:21.899Z,1019.46
2022-08-07T11:07:56.384Z,1019.50
2022-08-07T11:08:20.395Z,1019.42
2022-08-07T11:10:08.671Z,1019.41
2022-08-07T11:10:20.407Z,1019.36
2022-08-07T11:11:21.032Z,1019.36
2022-08-07T11:12:32.364Z,1019.38
2022-08-07T11:14:42.694Z,1019.38
2022-08-07T11:14:45.195Z,1019.37
2022-08-07T11:15:20.401Z,1019.31
2022-08-07T11:16:20.401Z,1019.26
2022-08-07T11:17:23.104Z,1019.28
2022-08-07T11:18:20.400Z,1019.27
2022-08-07T11:19:21.364Z,1019.29
2022-08-07T11:20:20.393Z,1019.27
2022-08-07T11:21:20.390Z,1019.28
2022-08-07T11:22:33.297Z,1019.25
2022-08-07T11:23:20.502Z,1019.23
2022-08-07T11:24:20.403Z,1019.19
2022-08-07T11:25:20.402Z,1019.15
2022-08-07T11:26:20.391Z,1019.19
2022-08-07T11:27:20.713Z,1019.14
2022-08-07T11:28:20.391Z,1019.14
2022-08-07T11:29:42.168Z,1019.20
2022-08-07T11:30:39.069Z,1019.15
2022-08-07T11:31:20.384Z,1019.15
2022-08-07T11:32:25.675Z,1019.13
2022-08-07T11:33:53.809Z,1019.12
2022-08-07T11:34:20.384Z,1019.14
2022-08-07T11:35:26.813Z,1019.09
2022-08-07T11:36:30.481Z,1019.05
2022-08-07T11:37:24.382Z,1019.08
2022-08-07T11:38:21.349Z,1019.09
2022-08-07T11:39:20.638Z,1019.07
2022-08-07T11:40:20.448Z,1019.07
2022-08-07T11:41:29.695Z,1019.04
2022-08-07T11:42:20.384Z,1019.07
2022-08-07T11:43:29.582Z,1019.05
2022-08-07T11:44:20.377Z,1019.08
2022-08-07T11:45:23.781Z,1019.01
2022-08-07T11:46:20.377Z,1018.99
2022-08-07T11:47:20.413Z,1018.99
2022-08-07T11:48:29.521Z,1019.03
2022-08-07T11:49:50.777Z,1019.00
2022-08-07T11:50:31.691Z,1018.97
2022-08-07T11:51:41.373Z,1018.94
2022-08-07T11:52:20.364Z,1018.92
2022-08-07T11:53:21.687Z,1018.93
2022-08-07T11:54:25.400Z,1018.95
2022-08-07T11:56:24.861Z,1018.93
2022-08-07T11:56:26.885Z,1018.91
2022-08-07T11:57:20.368Z,1018.91
2022-08-07T11:58:20.368Z,1018.96
2022-08-07T12:00:08.279Z,1018.92
2022-08-07T12:00:20.368Z,1018.93
2022-08-07T12:01:22.024Z,1018.99
2022-08-07T12:02:20.844Z,1018.92
2022-08-07T12:03:45.299Z,1018.96
2022-08-07T12:04:20.374Z,1019.01
2022-08-07T12:05:41.002Z,1018.97